Time;durP1;ratioP1;P1;durP2;ratioP2;P2;SDS_P1;SDS_P2;PMS_P1;PMS_P2;Temp;Humidity;BMP_temperature;BMP_pressure;BME280_temperature;BME280_humidity;BME280_pressure;Samples;Min_cycle;Max_cycle;Signal;HPM_P1;HPM_P2
2022/07/27 00:02:06;;;;;;;;;;;;;;;20.12;100.00;100177.13;10579653;28;19928;-68
2022/07/27 00:07:10;;;;;;;;;;;;;;;20.10;100.00;100176.38;10579200;28;19923;-65
2022/07/27 00:12:13;;;;;;;;;;;;;;;20.09;100.00;100179.06;10578757;28;20309;-68
2022/07/27 00:17:21;;;;;;;;;;;;;;;20.07;100.00;100180.94;10579869;28;19928;-68
2022/07/27 00:22:26;;;;;;;;;;;;;;;20.02;100.00;100186.44;10579543;28;20272;-67
2022/07/27 00:27:29;;;;;;;;;;;;;;;19.99;100.00;100189.22;10579183;28;19928;-69
2022/07/27 00:32:32;;;;;;;;;;;;;;;19.95;100.00;100192.94;10578926;28;19923;-68
2022/07/27 00:37:36;;;;;;;;;;;;;;;19.99;100.00;100193.63;10579335;28;20357;-67
2022/07/27 00:42:39;;;;;;;;;;;;;;;19.97;100.00;100199.00;10579206;28;20291;-69
2022/07/27 00:47:42;;;;;;;;;;;;;;;19.92;100.00;100201.00;10601911;27;19935;-67
2022/07/27 00:52:47;;;;;;;;;;;;;;;19.87;100.00;100203.03;10630015;27;19932;-67
2022/07/27 00:57:50;;;;;;;;;;;;;;;19.81;100.00;100220.94;10629071;27;19923;-69
2022/07/27 01:03:01;;;;;;;;;;;;;;;19.82;100.00;100228.75;10629040;27;19927;-69
2022/07/27 01:08:13;;;;;;;;;;;;;;;19.74;100.00;100232.69;10629609;27;20042;-66
2022/07/27 01:13:16;;;;;;;;;;;;;;;19.71;100.00;100232.84;10628902;27;19928;-68
2022/07/27 01:18:27;;;;;;;;;;;;;;;19.64;100.00;100231.44;10628054;27;19923;-66
2022/07/27 01:23:32;;;;;;;;;;;;;;;19.52;100.00;100241.63;10628138;27;19939;-66
2022/07/27 01:28:35;;;;;;;;;;;;;;;19.58;100.00;100240.50;10628494;27;19934;-67
2022/07/27 01:33:38;;;;;;;;;;;;;;;19.51;100.00;100236.44;10627707;27;19949;-69
2022/07/27 01:38:42;;;;;;;;;;;;;;;19.57;100.00;100243.22;10627170;27;19934;-66
2022/07/27 01:43:45;;;;;;;;;;;;;;;19.52;100.00;100240.78;10627770;27;19941;-67
2022/07/27 01:48:48;;;;;;;;;;;;;;;19.55;100.00;100236.22;10602694;27;19927;-67
2022/07/27 01:53:53;;;;;;;;;;;;;;;19.53;100.00;100237.22;10583862;28;19923;-65
2022/07/27 01:58:56;;;;;;;;;;;;;;;19.59;100.00;100234.28;10584141;28;19923;-67
2022/07/27 02:03:58;;;;;;;;;;;;;;;19.45;100.00;100239.38;10584786;28;20248;-69
2022/07/27 02:09:03;;;;;;;;;;;;;;;19.45;100.00;100249.91;10583447;28;19927;-66
2022/07/27 02:14:06;;;;;;;;;;;;;;;19.36;100.00;100263.53;10583432;28;20225;-68
2022/07/27 02:19:09;;;;;;;;;;;;;;;19.33;100.00;100255.75;10584151;28;19924;-69
2022/07/27 02:24:15;;;;;;;;;;;;;;;19.31;100.00;100255.81;10583253;28;20229;-67
2022/07/27 02:29:18;;;;;;;;;;;;;;;19.25;100.00;100268.38;10582567;28;19928;-68
2022/07/27 02:34:21;;;;;;;;;;;;;;;19.24;100.00;100272.78;10583053;28;19928;-68
2022/07/27 02:39:25;;;;;;;;;;;;;;;19.15;100.00;100280.28;10583432;28;20376;-67
2022/07/27 02:44:28;;;;;;;;;;;;;;;19.09;100.00;100272.66;10582291;28;19923;-68
2022/07/27 02:49:31;;;;;;;;;;;;;;;19.07;100.00;100264.84;10612313;27;19934;-70
2022/07/27 02:54:35;;;;;;;;;;;;;;;19.17;100.00;100270.53;10625043;27;20242;-67
2022/07/27 02:59:38;;;;;;;;;;;;;;;19.17;100.00;100283.69;10624233;27;19927;-67
2022/07/27 03:04:41;;;;;;;;;;;;;;;19.20;100.00;100286.19;10623929;27;19938;-66
2022/07/27 03:09:46;;;;;;;;;;;;;;;19.19;100.00;100295.84;10623168;27;19981;-65
2022/07/27 03:14:54;;;;;;;;;;;;;;;19.18;100.00;100304.66;10624532;27;19923;-69
2022/07/27 03:19:57;;;;;;;;;;;;;;;19.13;100.00;100308.44;10623939;27;20014;-66
2022/07/27 03:25:01;;;;;;;;;;;;;;;19.23;100.00;100307.94;10623386;27;19928;-69
2022/07/27 03:30:05;;;;;;;;;;;;;;;19.15;100.00;100320.59;10623774;27;19949;-69
2022/07/27 03:35:09;;;;;;;;;;;;;;;19.25;100.00;100329.78;10622581;27;19935;-69
2022/07/27 03:40:13;;;;;;;;;;;;;;;19.20;100.00;100334.41;10622324;27;20255;-66
2022/07/27 03:45:16;;;;;;;;;;;;;;;19.17;100.00;100331.06;10622749;27;20251;-68
2022/07/27 03:50:19;;;;;;;;;;;;;;;19.11;100.00;100350.59;10621934;27;19928;-68
2022/07/27 03:55:26;;;;;;;;;;;;;;;19.13;100.00;100353.16;10621361;27;20234;-69
2022/07/27 04:00:29;;;;;;;;;;;;;;;19.12;100.00;100351.47;10622064;27;19927;-66
2022/07/27 04:05:32;;;;;;;;;;;;;;;19.13;100.00;100354.03;10622947;27;20581;-66
2022/07/27 04:10:36;;;;;;;;;;;;;;;19.09;100.00;100354.22;10621449;27;19935;-64
2022/07/27 04:15:39;;;;;;;;;;;;;;;19.08;100.00;100370.94;10621589;27;20259;-64
2022/07/27 04:20:42;;;;;;;;;;;;;;;19.04;100.00;100377.25;10621231;27;19924;-64
2022/07/27 04:25:46;;;;;;;;;;;;;;;18.94;100.00;100373.31;10620976;28;19927;-65
2022/07/27 04:30:49;;;;;;;;;;;;;;;18.90;100.00;100375.22;10621184;28;19924;-62
2022/07/27 04:35:53;;;;;;;;;;;;;;;18.79;100.00;100380.13;10621627;28;19938;-60
2022/07/27 04:40:57;;;;;;;;;;;;;;;18.92;100.00;100390.94;10621372;28;19934;-63
2022/07/27 04:46:01;;;;;;;;;;;;;;;18.91;98.33;100390.09;10620287;28;19930;-63
2022/07/27 04:51:04;;;;;;;;;;;;;;;18.91;96.88;100392.75;10578914;28;19924;-62
2022/07/27 04:56:10;;;;;;;;;;;;;;;18.83;95.55;100401.84;10579163;28;19924;-64
2022/07/27 05:01:13;;;;;;;;;;;;;;;18.75;96.66;100403.97;10577979;28;20348;-64
2022/07/27 05:06:16;;;;;;;;;;;;;;;18.84;95.54;100386.03;10577848;28;19928;-69
2022/07/27 05:11:20;;;;;;;;;;;;;;;18.86;94.50;100393.84;10578193;28;19949;-66
2022/07/27 05:16:23;;;;;;;;;;;;;;;18.82;93.78;100389.63;10577679;28;19938;-69
2022/07/27 05:21:30;;;;;;;;;;;;;;;18.89;92.93;100384.06;10577602;28;19924;-66
2022/07/27 05:26:35;;;;;;;;;;;;;;;18.84;92.51;100382.53;10577620;28;19934;-66
2022/07/27 05:31:38;;;;;;;;;;;;;;;18.89;91.46;100388.44;10583901;28;20102;-69
2022/07/27 05:36:41;;;;;;;;;;;;;;;18.86;89.99;100401.75;10585503;28;19924;-67
2022/07/27 05:41:45;;;;;;;;;;;;;;;18.94;90.14;100399.63;10584659;28;19923;-68
2022/07/27 05:46:50;;;;;;;;;;;;;;;18.91;89.18;100399.78;10593057;27;20134;-71
2022/07/27 05:51:53;;;;;;;;;;;;;;;18.92;88.02;100415.47;10626530;27;19927;-68
2022/07/27 05:56:58;;;;;;;;;;;;;;;19.03;87.01;100408.00;10585940;27;19923;-70
2022/07/27 06:02:01;;;;;;;;;;;;;;;19.10;85.85;100404.13;10584049;28;19927;-70
2022/07/27 06:12:26;;;;;;;;;;;;;;;19.03;82.91;100409.75;10583427;28;19928;-68
2022/07/27 06:17:32;;;;;;;;;;;;;;;19.08;81.53;100424.44;10583821;28;19941;-69
2022/07/27 06:22:44;;;;;;;;;;;;;;;19.09;79.67;100426.13;10584113;28;19928;-66
2022/07/27 06:27:48;;;;;;;;;;;;;;;19.12;77.89;100420.72;10582913;28;19943;-68
2022/07/27 06:32:51;;;;;;;;;;;;;;;19.18;77.47;100419.59;10582772;28;20506;-68
2022/07/27 06:37:54;;;;;;;;;;;;;;;19.24;76.29;100416.72;10582911;28;19942;-68
2022/07/27 06:42:58;;;;;;;;;;;;;;;19.31;75.28;100415.56;10581440;28;19957;-66
2022/07/27 06:48:01;;;;;;;;;;;;;;;19.33;73.77;100425.06;10599326;27;19923;-66
2022/07/27 06:53:04;;;;;;;;;;;;;;;19.37;72.74;100424.03;10624554;27;20541;-69
2022/07/27 06:58:09;;;;;;;;;;;;;;;19.43;72.66;100423.72;10597737;27;19927;-67
2022/07/27 07:03:12;;;;;;;;;;;;;;;19.53;72.82;100422.38;10582220;28;19980;-66
2022/07/27 07:08:15;;;;;;;;;;;;;;;19.51;71.51;100410.22;10583700;28;19923;-69
2022/07/27 07:13:19;;;;;;;;;;;;;;;19.55;71.44;100412.63;10587028;28;19923;-70
2022/07/27 07:18:22;;;;;;;;;;;;;;;19.57;70.57;100423.09;10586820;28;19934;-68
2022/07/27 07:23:25;;;;;;;;;;;;;;;19.62;70.61;100415.88;10586918;28;19934;-66
2022/07/27 07:28:30;;;;;;;;;;;;;;;19.62;69.22;100415.88;10586249;28;19966;-67
2022/07/27 07:33:33;;;;;;;;;;;;;;;19.68;69.46;100407.66;10586240;28;19934;-66
2022/07/27 07:38:36;;;;;;;;;;;;;;;19.77;68.98;100420.41;10581967;28;19930;-67
2022/07/27 07:43:41;;;;;;;;;;;;;;;19.87;68.29;100415.56;10579997;28;19923;-70
2022/07/27 07:48:44;;;;;;;;;;;;;;;19.88;66.36;100412.84;10604388;27;19928;-70
2022/07/27 07:53:47;;;;;;;;;;;;;;;19.81;65.29;100427.22;10622422;27;19934;-66
2022/07/27 07:58:51;;;;;;;;;;;;;;;20.01;65.49;100429.81;10596620;27;19950;-66
2022/07/27 08:03:54;;;;;;;;;;;;;;;20.07;64.92;100423.38;10580046;28;19927;-65
2022/07/27 08:08:57;;;;;;;;;;;;;;;20.11;64.57;100432.84;10578819;28;20317;-67
2022/07/27 08:14:02;;;;;;;;;;;;;;;20.11;64.51;100432.84;10578914;28;19927;-67
2022/07/27 08:19:05;;;;;;;;;;;;;;;20.18;64.47;100416.69;10579366;28;19927;-69
2022/07/27 08:24:11;;;;;;;;;;;;;;;20.20;64.52;100432.44;10579417;28;19932;-67
2022/07/27 08:29:15;;;;;;;;;;;;;;;20.27;64.31;100424.16;10578246;28;19947;-67
2022/07/27 08:34:24;;;;;;;;;;;;;;;20.30;63.83;100423.16;10579204;28;19934;-68
2022/07/27 08:39:27;;;;;;;;;;;;;;;20.34;64.44;100422.94;10578821;28;20237;-67
2022/07/27 08:44:52;;;;;;;;;;;;;;;20.46;65.07;100430.25;10578261;28;19928;-68
2022/07/27 08:49:55;;;;;;;;;;;;;;;20.53;64.77;100444.84;10584523;28;19924;-67
2022/07/27 08:54:58;;;;;;;;;;;;;;;20.55;63.45;100444.78;10579136;28;19928;-64
2022/07/27 09:00:06;;;;;;;;;;;;;;;20.58;63.96;100448.09;10578084;28;19924;-62
2022/07/27 09:05:09;;;;;;;;;;;;;;;20.84;64.66;100443.28;10581274;28;19928;-65
2022/07/27 09:10:27;;;;;;;;;;;;;;;20.87;63.75;100451.06;10586702;28;19943;-63
2022/07/27 09:15:32;;;;;;;;;;;;;;;21.10;64.41;100456.06;10585871;28;19938;-63
2022/07/27 09:20:36;;;;;;;;;;;;;;;21.27;63.01;100456.88;10586001;28;19981;-64
2022/07/27 09:25:39;;;;;;;;;;;;;;;21.62;63.24;100444.47;10589324;28;19923;-66
2022/07/27 09:31:07;;;;;;;;;;;;;;;21.79;61.49;100457.63;10591123;28;20291;-64
2022/07/27 09:36:11;;;;;;;;;;;;;;;21.89;62.14;100455.34;10591662;28;20007;-65
2022/07/27 09:41:14;;;;;;;;;;;;;;;22.35;61.66;100457.97;10590516;28;19923;-65
2022/07/27 09:46:28;;;;;;;;;;;;;;;22.45;60.53;100448.56;10590689;28;19942;-66
2022/07/27 09:51:31;;;;;;;;;;;;;;;22.27;60.91;100454.91;10590351;28;19927;-64
2022/07/27 09:56:58;;;;;;;;;;;;;;;22.14;61.36;100453.88;10588376;28;19930;-63
2022/07/27 10:02:02;;;;;;;;;;;;;;;22.54;63.56;100456.03;10590213;28;19946;-64
2022/07/27 10:07:05;;;;;;;;;;;;;;;26.20;59.76;100441.63;10589707;28;19931;-66
2022/07/27 10:12:14;;;;;;;;;;;;;;;28.31;48.71;100430.41;10589854;28;19924;-68
2022/07/27 10:17:21;;;;;;;;;;;;;;;24.86;54.02;100453.78;10588363;28;19924;-67
2022/07/27 10:22:39;;;;;;;;;;;;;;;25.69;51.30;100448.00;10588976;28;19938;-65
2022/07/27 10:27:42;;;;;;;;;;;;;;;25.48;51.37;100445.06;10588166;28;20246;-70
2022/07/27 10:32:46;;;;;;;;;;;;;;;26.14;48.99;100437.59;10588369;28;19924;-66
2022/07/27 10:38:06;;;;;;;;;;;;;;;24.08;53.23;100451.03;10588451;28;20003;-65
2022/07/27 10:43:16;;;;;;;;;;;;;;;23.64;55.18;100449.34;10588699;28;19934;-67
2022/07/27 10:48:37;;;;;;;;;;;;;;;23.53;55.52;100453.63;10588169;28;20283;-66
2022/07/27 10:53:50;;;;;;;;;;;;;;;23.25;56.87;100457.06;10545742;28;19924;-65
2022/07/27 10:59:13;;;;;;;;;;;;;;;23.22;57.25;100456.41;10548529;28;19923;-66
2022/07/27 11:04:19;;;;;;;;;;;;;;;23.31;57.34;100455.88;10587861;28;19934;-66
2022/07/27 11:09:22;;;;;;;;;;;;;;;23.12;58.60;100453.47;10587270;28;19924;-68
2022/07/27 11:14:46;;;;;;;;;;;;;;;23.68;57.82;100456.16;10587012;28;19923;-66
2022/07/27 11:19:53;;;;;;;;;;;;;;;23.57;57.84;100445.38;10586718;28;19924;-66
2022/07/27 11:24:56;;;;;;;;;;;;;;;23.47;58.12;100438.94;10587019;28;19924;-66
2022/07/27 11:29:59;;;;;;;;;;;;;;;23.22;57.18;100444.00;10586069;28;19923;-66
2022/07/27 11:35:13;;;;;;;;;;;;;;;23.19;57.06;100443.34;10586395;28;19930;-66
2022/07/27 11:40:21;;;;;;;;;;;;;;;23.27;56.92;100444.59;10585500;28;19924;-66
2022/07/27 11:45:44;;;;;;;;;;;;;;;23.24;57.13;100444.78;10585932;28;20390;-67
2022/07/27 11:50:57;;;;;;;;;;;;;;;23.35;56.96;100445.00;10585653;28;19928;-65
2022/07/27 11:56:00;;;;;;;;;;;;;;;24.16;55.22;100444.28;10584827;28;19937;-64
2022/07/27 12:01:03;;;;;;;;;;;;;;;24.09;56.92;100445.63;10584735;28;20273;-63
2022/07/27 12:06:08;;;;;;;;;;;;;;;24.05;57.90;100453.88;10585513;28;19934;-64
2022/07/27 12:11:11;;;;;;;;;;;;;;;25.20;54.63;100445.22;10585094;28;19923;-68
2022/07/27 12:16:18;;;;;;;;;;;;;;;26.26;52.38;100443.84;10585069;28;20361;-61
2022/07/27 12:21:22;;;;;;;;;;;;;;;25.73;51.76;100428.22;10584881;28;19923;-62
2022/07/27 12:26:33;;;;;;;;;;;;;;;25.44;51.33;100446.22;10584860;28;19934;-63
2022/07/27 12:31:37;;;;;;;;;;;;;;;26.34;49.75;100428.16;10584449;28;20332;-62
2022/07/27 12:36:42;;;;;;;;;;;;;;;27.08;48.65;100430.50;10584755;28;19923;-63
2022/07/27 12:41:44;;;;;;;;;;;;;;;26.47;50.11;100433.44;10590531;28;19934;-64
2022/07/27 12:46:54;;;;;;;;;;;;;;;26.08;49.51;100434.53;10591380;28;19924;-65
2022/07/27 12:52:05;;;;;;;;;;;;;;;27.79;47.54;100427.56;10234841;27;9999753;-65
2022/07/27 12:57:08;;;;;;;;;;;;;;;27.25;48.45;100422.03;10586466;28;19938;-63
2022/07/27 13:02:11;;;;;;;;;;;;;;;27.03;48.38;100430.88;10586057;28;20288;-69
2022/07/27 13:07:17;;;;;;;;;;;;;;;27.53;47.90;100424.28;10586559;28;20000;-66
2022/07/27 13:12:20;;;;;;;;;;;;;;;27.89;46.73;100433.84;10586144;28;19928;-67
2022/07/27 13:17:24;;;;;;;;;;;;;;;28.33;44.74;100423.97;10585930;28;19923;-71
2022/07/27 13:22:28;;;;;;;;;;;;;;;28.09;45.16;100428.66;10585249;28;19931;-65
2022/07/27 13:27:31;;;;;;;;;;;;;;;28.07;45.06;100421.72;10591673;28;19924;-69
2022/07/27 13:32:35;;;;;;;;;;;;;;;26.84;47.49;100408.41;10591130;28;19924;-67
2022/07/27 13:37:39;;;;;;;;;;;;;;;25.98;49.05;100413.03;10591097;28;19924;-67
2022/07/27 13:42:42;;;;;;;;;;;;;;;25.64;49.43;100427.06;10590676;28;19928;-69
2022/07/27 13:47:45;;;;;;;;;;;;;;;26.87;47.12;100416.19;10590749;28;20011;-68
2022/07/27 13:52:50;;;;;;;;;;;;;;;25.79;49.61;100412.69;10589753;28;19923;-69
2022/07/27 13:57:53;;;;;;;;;;;;;;;26.44;48.74;100401.72;10589472;28;20057;-68
2022/07/27 14:02:55;;;;;;;;;;;;;;;27.24;48.45;100393.69;10589794;28;19924;-69
2022/07/27 14:08:00;;;;;;;;;;;;;;;27.42;47.19;100402.13;10589753;28;19924;-67
2022/07/27 14:13:04;;;;;;;;;;;;;;;27.56;46.92;100400.03;10589139;28;19923;-66
2022/07/27 14:18:10;;;;;;;;;;;;;;;27.45;45.47;100405.38;10589454;28;19924;-67
2022/07/27 14:23:14;;;;;;;;;;;;;;;27.18;45.23;100410.19;10588889;28;19924;-68
2022/07/27 14:28:18;;;;;;;;;;;;;;;27.33;45.70;100424.16;10588858;28;19934;-66
2022/07/27 14:33:21;;;;;;;;;;;;;;;26.53;47.13;100412.50;10587946;28;20348;-66
2022/07/27 14:38:26;;;;;;;;;;;;;;;26.15;47.64;100414.50;10588298;28;19934;-66
2022/07/27 14:43:32;;;;;;;;;;;;;;;26.26;47.81;100414.56;10588353;28;20026;-62
2022/07/27 14:48:35;;;;;;;;;;;;;;;26.49;49.16;100420.84;10588155;28;19924;-64
2022/07/27 14:54:00;;;;;;;;;;;;;;;25.73;49.57;100410.44;10588053;28;19930;-62
2022/07/27 14:59:03;;;;;;;;;;;;;;;25.20;50.29;100417.78;10587722;28;19935;-67
2022/07/27 15:04:06;;;;;;;;;;;;;;;25.06;50.83;100403.69;10586763;28;19932;-65
2022/07/27 15:09:10;;;;;;;;;;;;;;;25.39;51.88;100394.31;10587700;28;20236;-65
2022/07/27 15:14:15;;;;;;;;;;;;;;;25.34;50.89;100397.28;10585024;28;19927;-68
2022/07/27 15:19:18;;;;;;;;;;;;;;;24.94;50.75;100401.00;10585434;28;19973;-63
2022/07/27 15:24:23;;;;;;;;;;;;;;;24.60;51.35;100407.72;10585191;28;20387;-64
2022/07/27 15:29:26;;;;;;;;;;;;;;;24.31;51.97;100414.13;10585312;28;19934;-64
2022/07/27 15:34:29;;;;;;;;;;;;;;;24.29;51.93;100417.81;10584721;28;19924;-64
2022/07/27 15:39:35;;;;;;;;;;;;;;;24.24;52.83;100414.59;10581817;28;20264;-67
2022/07/27 15:44:40;;;;;;;;;;;;;;;24.14;52.89;100411.72;10585342;28;20006;-70
2022/07/27 15:49:43;;;;;;;;;;;;;;;24.00;53.82;100417.06;10552701;28;20261;-67
2022/07/27 15:54:47;;;;;;;;;;;;;;;24.14;53.74;100410.84;10541679;28;19965;-65
2022/07/27 15:59:50;;;;;;;;;;;;;;;24.28;53.60;100410.81;10542488;28;19935;-67
2022/07/27 16:04:53;;;;;;;;;;;;;;;24.11;54.65;100419.84;10541645;28;19924;-65
2022/07/27 16:09:58;;;;;;;;;;;;;;;24.05;55.04;100417.59;10542532;28;19928;-65
2022/07/27 16:15:01;;;;;;;;;;;;;;;24.23;54.84;100410.25;10541454;28;20249;-65
2022/07/27 16:20:04;;;;;;;;;;;;;;;24.17;54.68;100400.03;10541800;28;19924;-66
2022/07/27 16:25:09;;;;;;;;;;;;;;;24.07;55.27;100405.09;10542098;28;19924;-65
2022/07/27 16:30:12;;;;;;;;;;;;;;;24.09;55.28;100397.88;10541565;28;19965;-67
2022/07/27 16:35:23;;;;;;;;;;;;;;;24.12;55.67;100395.03;10541343;28;20337;-67
2022/07/27 16:40:27;;;;;;;;;;;;;;;24.13;55.38;100394.06;10541905;28;20367;-66
2022/07/27 16:45:30;;;;;;;;;;;;;;;24.15;54.88;100397.47;10541918;28;19924;-64
2022/07/27 16:50:33;;;;;;;;;;;;;;;23.94;55.61;100399.69;10541082;28;19935;-68
2022/07/27 16:55:38;;;;;;;;;;;;;;;23.72;56.06;100395.84;10541844;28;19930;-66
2022/07/27 17:00:41;;;;;;;;;;;;;;;23.58;56.28;100398.53;10541789;28;19924;-68
2022/07/27 17:05:44;;;;;;;;;;;;;;;23.53;56.31;100387.38;10541365;28;20019;-66
2022/07/27 17:10:49;;;;;;;;;;;;;;;23.56;56.62;100393.31;10540586;28;20261;-67
2022/07/27 17:15:53;;;;;;;;;;;;;;;23.37;56.99;100390.13;10541134;28;19928;-66
2022/07/27 17:20:56;;;;;;;;;;;;;;;23.38;57.13;100385.69;10541100;28;20215;-67
2022/07/27 17:26:00;;;;;;;;;;;;;;;23.31;58.05;100384.34;10544983;28;19933;-67
2022/07/27 17:31:04;;;;;;;;;;;;;;;23.16;58.32;100379.97;10547557;28;19924;-67
2022/07/27 17:36:08;;;;;;;;;;;;;;;23.05;59.00;100377.13;10582153;28;19934;-69
2022/07/27 17:41:18;;;;;;;;;;;;;;;23.00;59.09;100390.66;10590607;28;19932;-66
2022/07/27 17:46:27;;;;;;;;;;;;;;;23.00;59.07;100395.09;10590714;28;19976;-68
2022/07/27 17:51:30;;;;;;;;;;;;;;;22.92;59.14;100397.34;10590295;28;19927;-67
2022/07/27 17:56:34;;;;;;;;;;;;;;;22.86;59.15;100403.84;10590453;28;19923;-69
2022/07/27 18:01:38;;;;;;;;;;;;;;;22.84;59.38;100408.38;10590187;28;19924;-68
2022/07/27 18:06:50;;;;;;;;;;;;;;;22.83;59.10;100409.34;10589878;28;19934;-68
2022/07/27 18:11:54;;;;;;;;;;;;;;;22.80;59.05;100418.31;10589921;28;19924;-66
2022/07/27 18:16:59;;;;;;;;;;;;;;;22.78;58.90;100411.38;10589339;28;19924;-66
2022/07/27 18:22:02;;;;;;;;;;;;;;;22.74;59.00;100417.81;10589574;28;19930;-66
2022/07/27 18:27:06;;;;;;;;;;;;;;;22.70;59.67;100411.84;10589093;28;20253;-69
2022/07/27 18:32:09;;;;;;;;;;;;;;;22.61;60.96;100407.09;10589421;28;19924;-68
2022/07/27 18:37:12;;;;;;;;;;;;;;;22.51;61.80;100408.53;10587669;28;20217;-66
2022/07/27 18:42:17;;;;;;;;;;;;;;;22.44;61.67;100419.56;10588516;28;19924;-62
2022/07/27 18:47:20;;;;;;;;;;;;;;;22.32;61.49;100426.41;10588275;28;19923;-71
2022/07/27 18:52:22;;;;;;;;;;;;;;;22.30;61.55;100425.66;10588178;28;19924;-67
2022/07/27 18:57:27;;;;;;;;;;;;;;;22.25;61.25;100438.28;10587865;28;19924;-65
2022/07/27 19:02:30;;;;;;;;;;;;;;;22.19;59.72;100446.56;10587590;28;19924;-67
2022/07/27 19:07:41;;;;;;;;;;;;;;;22.17;60.51;100450.22;10587500;28;19924;-69
2022/07/27 19:12:45;;;;;;;;;;;;;;;22.12;61.16;100458.44;10587177;28;19923;-64
2022/07/27 19:17:48;;;;;;;;;;;;;;;22.08;61.07;100456.88;10587172;28;19924;-65
2022/07/27 19:22:51;;;;;;;;;;;;;;;22.02;61.79;100466.97;10586974;28;19949;-67
2022/07/27 19:27:56;;;;;;;;;;;;;;;21.87;64.89;100473.91;10582288;28;19923;-65
2022/07/27 19:32:59;;;;;;;;;;;;;;;21.76;64.76;100484.22;10580898;28;19928;-64
2022/07/27 19:38:02;;;;;;;;;;;;;;;21.55;65.19;100482.69;10580257;28;19924;-63
2022/07/27 19:43:07;;;;;;;;;;;;;;;21.49;66.92;100501.50;10580656;28;20302;-64
2022/07/27 19:48:10;;;;;;;;;;;;;;;21.35;67.62;100504.88;10580873;28;19928;-64
2022/07/27 19:53:13;;;;;;;;;;;;;;;21.25;67.95;100503.63;10238736;27;9999973;-68
2022/07/27 19:58:18;;;;;;;;;;;;;;;21.12;68.75;100512.28;10622170;27;19928;-66
2022/07/27 20:03:21;;;;;;;;;;;;;;;21.15;68.84;100530.59;10622727;27;19938;-65
2022/07/27 20:08:24;;;;;;;;;;;;;;;21.23;65.66;100547.75;10621753;27;20259;-65
2022/07/27 20:13:28;;;;;;;;;;;;;;;21.40;63.17;100545.09;10621704;27;19927;-68
2022/07/27 20:18:34;;;;;;;;;;;;;;;21.38;61.29;100546.13;10622084;27;19931;-67
2022/07/27 20:23:38;;;;;;;;;;;;;;;21.34;59.85;100552.47;10621699;27;19933;-67
2022/07/27 20:28:49;;;;;;;;;;;;;;;21.26;59.24;100552.88;10621921;28;19954;-70
2022/07/27 20:33:52;;;;;;;;;;;;;;;21.24;58.36;100553.88;10622234;28;20043;-66
2022/07/27 20:38:57;;;;;;;;;;;;;;;21.22;57.44;100561.03;10621428;28;19934;-69
2022/07/27 20:44:02;;;;;;;;;;;;;;;21.17;56.83;100568.34;10620886;28;20600;-67
2022/07/27 20:49:05;;;;;;;;;;;;;;;21.09;56.26;100568.69;10620971;28;19927;-68
2022/07/27 20:54:08;;;;;;;;;;;;;;;21.00;56.69;100576.22;10600217;28;19985;-68
2022/07/27 20:59:12;;;;;;;;;;;;;;;20.96;56.10;100585.19;10578366;28;19923;-69
2022/07/27 21:04:20;;;;;;;;;;;;;;;20.93;55.79;100587.97;10586478;28;19928;-65
2022/07/27 21:09:23;;;;;;;;;;;;;;;20.88;56.06;100593.47;10587350;28;19934;-67
2022/07/27 21:14:28;;;;;;;;;;;;;;;20.80;56.17;100600.03;10586727;28;19938;-66
2022/07/27 21:19:31;;;;;;;;;;;;;;;20.76;55.60;100609.06;10586039;28;19927;-66
2022/07/27 21:24:34;;;;;;;;;;;;;;;20.66;55.74;100603.34;10586689;28;19927;-67
2022/07/27 21:29:40;;;;;;;;;;;;;;;20.71;54.98;100609.25;10585992;28;19924;-67
2022/07/27 21:34:43;;;;;;;;;;;;;;;20.73;54.85;100612.69;10585553;28;19931;-67
2022/07/27 21:39:46;;;;;;;;;;;;;;;20.64;54.92;100623.66;10584800;28;20347;-67
2022/07/27 21:44:50;;;;;;;;;;;;;;;20.58;54.51;100638.03;10585806;28;19946;-65
2022/07/27 21:49:53;;;;;;;;;;;;;;;20.52;55.01;100640.94;10585001;28;19934;-69
2022/07/27 21:54:56;;;;;;;;;;;;;;;20.48;55.49;100641.97;10584711;28;19934;-68
2022/07/27 22:00:00;;;;;;;;;;;;;;;20.40;55.77;100664.34;10601133;27;20367;-65
2022/07/27 22:05:03;;;;;;;;;;;;;;;20.36;56.15;100663.63;10626885;27;19984;-65
2022/07/27 22:10:07;;;;;;;;;;;;;;;20.29;56.49;100672.78;10626434;27;19934;-65
2022/07/27 22:15:12;;;;;;;;;;;;;;;20.20;57.42;100667.91;10626874;27;19950;-67
2022/07/27 22:20:15;;;;;;;;;;;;;;;20.15;57.63;100671.63;10626341;27;19939;-68
2022/07/27 22:25:19;;;;;;;;;;;;;;;20.10;58.95;100673.63;10625977;27;19958;-66
2022/07/27 22:30:23;;;;;;;;;;;;;;;20.08;59.34;100678.97;10625706;27;19928;-68
2022/07/27 22:35:26;;;;;;;;;;;;;;;19.88;60.33;100675.47;10626334;27;20334;-64
2022/07/27 22:40:29;;;;;;;;;;;;;;;19.80;60.32;100675.78;10625079;27;20260;-64
2022/07/27 22:45:33;;;;;;;;;;;;;;;19.77;59.79;100683.84;10625805;27;19981;-65
2022/07/27 22:50:37;;;;;;;;;;;;;;;19.72;59.35;100688.44;10625981;27;20022;-62
2022/07/27 22:55:40;;;;;;;;;;;;;;;19.50;59.71;100693.72;10590129;27;19935;-63
2022/07/27 23:00:44;;;;;;;;;;;;;;;19.49;58.93;100689.41;10582136;28;19928;-64
2022/07/27 23:05:47;;;;;;;;;;;;;;;19.57;58.84;100698.75;10581774;28;20325;-66
2022/07/27 23:10:50;;;;;;;;;;;;;;;19.50;59.17;100706.91;10584514;28;19924;-68
2022/07/27 23:15:55;;;;;;;;;;;;;;;19.46;58.82;100699.19;10587370;28;20245;-67
2022/07/27 23:20:58;;;;;;;;;;;;;;;19.41;59.78;100703.81;10587382;28;20230;-70
2022/07/27 23:26:01;;;;;;;;;;;;;;;19.38;60.72;100703.91;10586627;28;19931;-69
2022/07/27 23:31:05;;;;;;;;;;;;;;;19.33;61.38;100709.38;10586993;28;20005;-71
2022/07/27 23:36:09;;;;;;;;;;;;;;;19.21;61.06;100722.13;10586462;28;19923;-67
2022/07/27 23:41:12;;;;;;;;;;;;;;;19.13;60.73;100718.94;10586346;28;19932;-68
2022/07/27 23:46:16;;;;;;;;;;;;;;;19.09;61.48;100722.59;10586449;28;19928;-67
2022/07/27 23:51:19;;;;;;;;;;;;;;;19.13;61.79;100730.34;10585957;28;19923;-70
2022/07/27 23:56:22;;;;;;;;;;;;;;;19.08;61.93;100734.06;10585725;28;20347;-66
